KSHD/SHD METAR and TAF weather

Enter ICAO airport designator
Station Type Date Time Source
KSHD METAR 2022/06/26 07:35 UTC NOAA

KSHD 260735Z AUTO 00000KT 10SM CLR 19/19 A3016 RMK AO2 T01910186


Station Type Date Time Source
KSHD Decoded METAR 2022/06/26 07:35 UTC NOAA

Staunton / Shenandoah, VA, United States (KSHD) 38-16N 078-54W
Jun 26, 2022 - 03:35 AM EDT / 2022.06.26 0735 UTC
Wind: Calm:0
Visibility: 10 mile(s):0
Sky conditions: clear
Temperature: 66.4 F (19.1 C)
Dew Point: 65.5 F (18.6 C)
Relative Humidity: 96%
Pressure (altimeter): 30.16 in. Hg (1021 hPa)
ob: KSHD 260735Z AUTO 00000KT 10SM CLR 19/19 A3016 RMK AO2 T01910186
cycle: 7

Station Type Date Time Source
KSHD TAF UTC NOAA

Error!

Example: see airport list